sensor_id;sensor_type;location;lat;lon;timestamp;P1;durP1;ratioP1;P2;durP2;ratioP2
33579;SDS011;19909;43.644;-79.438;2023-02-15T00:01:56;0.80;;;0.40;;
33579;SDS011;19909;43.644;-79.438;2023-02-15T00:04:23;0.98;;;0.50;;
33579;SDS011;19909;43.644;-79.438;2023-02-15T00:07:10;0.85;;;0.60;;
33579;SDS011;19909;43.644;-79.438;2023-02-15T00:09:37;0.47;;;0.30;;
33579;SDS011;19909;43.644;-79.438;2023-02-15T00:12:03;0.55;;;0.40;;
33579;SDS011;19909;43.644;-79.438;2023-02-15T00:14:30;1.40;;;0.50;;
33579;SDS011;19909;43.644;-79.438;2023-02-15T00:16:56;0.73;;;0.35;;
33579;SDS011;19909;43.644;-79.438;2023-02-15T00:19:25;0.60;;;0.40;;
33579;SDS011;19909;43.644;-79.438;2023-02-15T00:21:51;0.65;;;0.38;;
33579;SDS011;19909;43.644;-79.438;2023-02-15T00:24:18;1.02;;;0.30;;
33579;SDS011;19909;43.644;-79.438;2023-02-15T00:26:45;1.05;;;0.40;;
33579;SDS011;19909;43.644;-79.438;2023-02-15T00:29:12;0.77;;;0.50;;
33579;SDS011;19909;43.644;-79.438;2023-02-15T00:31:39;0.73;;;0.50;;
33579;SDS011;19909;43.644;-79.438;2023-02-15T00:36:46;0.80;;;0.68;;
33579;SDS011;19909;43.644;-79.438;2023-02-15T00:39:12;0.65;;;0.52;;
33579;SDS011;19909;43.644;-79.438;2023-02-15T00:41:39;0.70;;;0.60;;
33579;SDS011;19909;43.644;-79.438;2023-02-15T00:44:05;1.63;;;0.68;;
33579;SDS011;19909;43.644;-79.438;2023-02-15T00:46:32;1.13;;;0.68;;
33579;SDS011;19909;43.644;-79.438;2023-02-15T00:48:58;1.13;;;0.70;;
33579;SDS011;19909;43.644;-79.438;2023-02-15T00:51:24;0.90;;;0.77;;
33579;SDS011;19909;43.644;-79.438;2023-02-15T00:53:50;0.90;;;0.75;;
33579;SDS011;19909;43.644;-79.438;2023-02-15T00:56:17;0.88;;;0.68;;
33579;SDS011;19909;43.644;-79.438;2023-02-15T00:58:44;1.13;;;0.77;;
33579;SDS011;19909;43.644;-79.438;2023-02-15T01:01:12;2.03;;;0.65;;
33579;SDS011;19909;43.644;-79.438;2023-02-15T01:03:40;1.00;;;0.68;;
33579;SDS011;19909;43.644;-79.438;2023-02-15T01:06:07;1.33;;;0.60;;
33579;SDS011;19909;43.644;-79.438;2023-02-15T01:08:33;1.30;;;0.80;;
33579;SDS011;19909;43.644;-79.438;2023-02-15T01:11:07;0.88;;;0.60;;
33579;SDS011;19909;43.644;-79.438;2023-02-15T01:13:35;1.13;;;0.55;;
33579;SDS011;19909;43.644;-79.438;2023-02-15T01:16:02;1.35;;;0.52;;
33579;SDS011;19909;43.644;-79.438;2023-02-15T01:18:29;2.53;;;1.00;;
33579;SDS011;19909;43.644;-79.438;2023-02-15T01:20:55;1.88;;;0.90;;
33579;SDS011;19909;43.644;-79.438;2023-02-15T01:23:22;1.65;;;0.80;;
33579;SDS011;19909;43.644;-79.438;2023-02-15T01:25:49;1.65;;;0.90;;
33579;SDS011;19909;43.644;-79.438;2023-02-15T01:28:15;1.10;;;0.70;;
33579;SDS011;19909;43.644;-79.438;2023-02-15T01:30:43;2.47;;;1.02;;
33579;SDS011;19909;43.644;-79.438;2023-02-15T01:33:09;1.00;;;0.70;;
33579;SDS011;19909;43.644;-79.438;2023-02-15T01:35:44;2.55;;;1.20;;
33579;SDS011;19909;43.644;-79.438;2023-02-15T01:38:11;2.22;;;1.30;;
33579;SDS011;19909;43.644;-79.438;2023-02-15T01:40:38;2.55;;;1.45;;
33579;SDS011;19909;43.644;-79.438;2023-02-15T01:43:11;1.60;;;1.20;;
33579;SDS011;19909;43.644;-79.438;2023-02-15T01:45:38;1.58;;;0.80;;
33579;SDS011;19909;43.644;-79.438;2023-02-15T01:50:54;1.27;;;0.90;;
33579;SDS011;19909;43.644;-79.438;2023-02-15T01:53:27;1.48;;;1.00;;
33579;SDS011;19909;43.644;-79.438;2023-02-15T01:58:40;1.58;;;1.27;;
33579;SDS011;19909;43.644;-79.438;2023-02-15T02:01:08;2.20;;;1.20;;
33579;SDS011;19909;43.644;-79.438;2023-02-15T02:06:23;1.75;;;1.10;;
33579;SDS011;19909;43.644;-79.438;2023-02-15T02:08:51;1.75;;;1.00;;
33579;SDS011;19909;43.644;-79.438;2023-02-15T02:11:19;1.58;;;1.05;;
33579;SDS011;19909;43.644;-79.438;2023-02-15T02:13:45;1.23;;;1.00;;
33579;SDS011;19909;43.644;-79.438;2023-02-15T02:30:16;1.23;;;0.90;;
33579;SDS011;19909;43.644;-79.438;2023-02-15T02:35:53;1.75;;;1.10;;
33579;SDS011;19909;43.644;-79.438;2023-02-15T02:39:10;1.27;;;0.80;;
33579;SDS011;19909;43.644;-79.438;2023-02-15T02:44:48;1.25;;;0.65;;
33579;SDS011;19909;43.644;-79.438;2023-02-15T02:47:23;1.73;;;1.20;;
33579;SDS011;19909;43.644;-79.438;2023-02-15T02:50:00;1.30;;;0.90;;
33579;SDS011;19909;43.644;-79.438;2023-02-15T02:52:38;1.95;;;0.77;;
33579;SDS011;19909;43.644;-79.438;2023-02-15T02:55:06;1.30;;;1.05;;
33579;SDS011;19909;43.644;-79.438;2023-02-15T03:00:33;1.10;;;0.70;;
33579;SDS011;19909;43.644;-79.438;2023-02-15T03:03:05;1.20;;;0.73;;
33579;SDS011;19909;43.644;-79.438;2023-02-15T03:05:37;1.27;;;0.80;;
33579;SDS011;19909;43.644;-79.438;2023-02-15T03:08:09;1.30;;;0.70;;
33579;SDS011;19909;43.644;-79.438;2023-02-15T03:10:46;1.20;;;0.90;;
33579;SDS011;19909;43.644;-79.438;2023-02-15T03:13:17;1.38;;;0.82;;
33579;SDS011;19909;43.644;-79.438;2023-02-15T03:15:44;2.03;;;1.05;;
33579;SDS011;19909;43.644;-79.438;2023-02-15T03:18:33;1.20;;;0.90;;
33579;SDS011;19909;43.644;-79.438;2023-02-15T03:21:05;1.10;;;0.65;;
33579;SDS011;19909;43.644;-79.438;2023-02-15T03:23:33;1.38;;;0.90;;
33579;SDS011;19909;43.644;-79.438;2023-02-15T03:26:03;0.80;;;0.57;;
33579;SDS011;19909;43.644;-79.438;2023-02-15T03:28:38;0.90;;;0.70;;
33579;SDS011;19909;43.644;-79.438;2023-02-15T03:31:08;0.60;;;0.40;;
33579;SDS011;19909;43.644;-79.438;2023-02-15T03:33:38;0.90;;;0.60;;
33579;SDS011;19909;43.644;-79.438;2023-02-15T03:36:21;0.68;;;0.57;;
33579;SDS011;19909;43.644;-79.438;2023-02-15T03:39:07;1.00;;;0.70;;
33579;SDS011;19909;43.644;-79.438;2023-02-15T03:41:41;0.80;;;0.50;;
33579;SDS011;19909;43.644;-79.438;2023-02-15T03:44:33;1.08;;;0.52;;
33579;SDS011;19909;43.644;-79.438;2023-02-15T03:47:13;1.08;;;0.60;;
33579;SDS011;19909;43.644;-79.438;2023-02-15T03:52:20;1.15;;;0.55;;
33579;SDS011;19909;43.644;-79.438;2023-02-15T03:54:48;1.52;;;0.70;;
33579;SDS011;19909;43.644;-79.438;2023-02-15T03:57:17;2.13;;;0.60;;
33579;SDS011;19909;43.644;-79.438;2023-02-15T04:00:21;1.73;;;0.45;;
33579;SDS011;19909;43.644;-79.438;2023-02-15T04:05:40;0.60;;;0.38;;
33579;SDS011;19909;43.644;-79.438;2023-02-15T04:08:07;0.95;;;0.68;;
33579;SDS011;19909;43.644;-79.438;2023-02-15T04:10:34;1.23;;;0.63;;
33579;SDS011;19909;43.644;-79.438;2023-02-15T04:13:20;1.23;;;0.63;;
33579;SDS011;19909;43.644;-79.438;2023-02-15T04:15:49;1.10;;;0.60;;
33579;SDS011;19909;43.644;-79.438;2023-02-15T04:18:29;1.83;;;0.75;;
33579;SDS011;19909;43.644;-79.438;2023-02-15T04:21:19;1.13;;;0.68;;
33579;SDS011;19909;43.644;-79.438;2023-02-15T04:24:05;0.82;;;0.60;;
33579;SDS011;19909;43.644;-79.438;2023-02-15T04:26:50;0.80;;;0.50;;
33579;SDS011;19909;43.644;-79.438;2023-02-15T04:29:20;2.22;;;0.60;;
33579;SDS011;19909;43.644;-79.438;2023-02-15T04:31:47;0.52;;;0.45;;
33579;SDS011;19909;43.644;-79.438;2023-02-15T04:34:13;0.65;;;0.50;;
33579;SDS011;19909;43.644;-79.438;2023-02-15T04:36:40;1.27;;;0.70;;
33579;SDS011;19909;43.644;-79.438;2023-02-15T04:39:07;0.65;;;0.43;;
33579;SDS011;19909;43.644;-79.438;2023-02-15T04:41:34;1.17;;;0.40;;
33579;SDS011;19909;43.644;-79.438;2023-02-15T04:44:00;0.90;;;0.60;;
33579;SDS011;19909;43.644;-79.438;2023-02-15T04:46:27;0.65;;;0.32;;
33579;SDS011;19909;43.644;-79.438;2023-02-15T04:48:54;0.75;;;0.57;;
33579;SDS011;19909;43.644;-79.438;2023-02-15T04:51:20;0.70;;;0.50;;
33579;SDS011;19909;43.644;-79.438;2023-02-15T04:53:46;0.60;;;0.47;;
33579;SDS011;19909;43.644;-79.438;2023-02-15T04:56:13;1.20;;;0.50;;
33579;SDS011;19909;43.644;-79.438;2023-02-15T04:58:40;0.52;;;0.43;;
33579;SDS011;19909;43.644;-79.438;2023-02-15T05:01:06;0.30;;;0.30;;
33579;SDS011;19909;43.644;-79.438;2023-02-15T05:03:34;0.70;;;0.47;;
33579;SDS011;19909;43.644;-79.438;2023-02-15T05:06:00;0.90;;;0.60;;
33579;SDS011;19909;43.644;-79.438;2023-02-15T05:08:26;1.05;;;0.30;;
33579;SDS011;19909;43.644;-79.438;2023-02-15T05:10:52;0.98;;;0.45;;
33579;SDS011;19909;43.644;-79.438;2023-02-15T05:13:19;0.93;;;0.50;;
33579;SDS011;19909;43.644;-79.438;2023-02-15T05:15:51;0.77;;;0.50;;
33579;SDS011;19909;43.644;-79.438;2023-02-15T05:18:19;0.60;;;0.40;;
33579;SDS011;19909;43.644;-79.438;2023-02-15T05:20:46;0.85;;;0.40;;
33579;SDS011;19909;43.644;-79.438;2023-02-15T05:23:13;0.50;;;0.40;;
33579;SDS011;19909;43.644;-79.438;2023-02-15T05:25:39;0.82;;;0.40;;
33579;SDS011;19909;43.644;-79.438;2023-02-15T05:28:26;0.47;;;0.38;;
33579;SDS011;19909;43.644;-79.438;2023-02-15T05:31:03;0.68;;;0.43;;
33579;SDS011;19909;43.644;-79.438;2023-02-15T05:33:30;0.47;;;0.40;;
33579;SDS011;19909;43.644;-79.438;2023-02-15T05:35:57;1.35;;;0.35;;
33579;SDS011;19909;43.644;-79.438;2023-02-15T05:38:23;0.73;;;0.40;;
33579;SDS011;19909;43.644;-79.438;2023-02-15T05:40:50;0.32;;;0.30;;
33579;SDS011;19909;43.644;-79.438;2023-02-15T05:43:17;0.70;;;0.50;;
33579;SDS011;19909;43.644;-79.438;2023-02-15T05:45:47;0.60;;;0.30;;
33579;SDS011;19909;43.644;-79.438;2023-02-15T05:48:14;0.50;;;0.40;;
33579;SDS011;19909;43.644;-79.438;2023-02-15T05:50:41;0.38;;;0.32;;
33579;SDS011;19909;43.644;-79.438;2023-02-15T05:53:08;0.80;;;0.47;;
33579;SDS011;19909;43.644;-79.438;2023-02-15T05:55:36;0.40;;;0.40;;
33579;SDS011;19909;43.644;-79.438;2023-02-15T05:58:04;1.38;;;0.63;;
33579;SDS011;19909;43.644;-79.438;2023-02-15T06:00:31;0.52;;;0.30;;
33579;SDS011;19909;43.644;-79.438;2023-02-15T06:02:57;0.55;;;0.40;;
33579;SDS011;19909;43.644;-79.438;2023-02-15T06:05:23;0.85;;;0.50;;
33579;SDS011;19909;43.644;-79.438;2023-02-15T06:07:49;1.13;;;0.40;;
33579;SDS011;19909;43.644;-79.438;2023-02-15T06:10:15;1.02;;;0.50;;
33579;SDS011;19909;43.644;-79.438;2023-02-15T06:12:43;1.23;;;0.52;;
33579;SDS011;19909;43.644;-79.438;2023-02-15T06:15:10;1.15;;;0.43;;
33579;SDS011;19909;43.644;-79.438;2023-02-15T06:17:36;0.60;;;0.40;;
33579;SDS011;19909;43.644;-79.438;2023-02-15T06:20:02;0.50;;;0.30;;
33579;SDS011;19909;43.644;-79.438;2023-02-15T06:22:29;0.50;;;0.30;;
33579;SDS011;19909;43.644;-79.438;2023-02-15T06:24:55;0.75;;;0.45;;
33579;SDS011;19909;43.644;-79.438;2023-02-15T06:27:21;1.33;;;0.50;;
33579;SDS011;19909;43.644;-79.438;2023-02-15T06:29:47;0.40;;;0.30;;
33579;SDS011;19909;43.644;-79.438;2023-02-15T06:32:14;0.70;;;0.40;;
33579;SDS011;19909;43.644;-79.438;2023-02-15T06:34:40;1.83;;;0.30;;
33579;SDS011;19909;43.644;-79.438;2023-02-15T06:37:06;0.82;;;0.40;;
33579;SDS011;19909;43.644;-79.438;2023-02-15T06:39:33;0.45;;;0.30;;
33579;SDS011;19909;43.644;-79.438;2023-02-15T06:41:59;1.25;;;0.40;;
33579;SDS011;19909;43.644;-79.438;2023-02-15T06:44:26;0.22;;;0.20;;
33579;SDS011;19909;43.644;-79.438;2023-02-15T06:46:52;1.60;;;0.50;;
33579;SDS011;19909;43.644;-79.438;2023-02-15T06:49:18;0.55;;;0.40;;
33579;SDS011;19909;43.644;-79.438;2023-02-15T06:51:44;0.20;;;0.20;;
33579;SDS011;19909;43.644;-79.438;2023-02-15T06:54:10;0.57;;;0.30;;
33579;SDS011;19909;43.644;-79.438;2023-02-15T06:56:37;0.65;;;0.32;;
33579;SDS011;19909;43.644;-79.438;2023-02-15T06:59:03;0.30;;;0.30;;
33579;SDS011;19909;43.644;-79.438;2023-02-15T07:01:30;0.60;;;0.30;;
33579;SDS011;19909;43.644;-79.438;2023-02-15T07:03:56;0.43;;;0.30;;
33579;SDS011;19909;43.644;-79.438;2023-02-15T07:06:22;0.93;;;0.43;;
33579;SDS011;19909;43.644;-79.438;2023-02-15T07:08:48;1.60;;;0.30;;
33579;SDS011;19909;43.644;-79.438;2023-02-15T07:11:15;0.90;;;0.35;;
33579;SDS011;19909;43.644;-79.438;2023-02-15T07:13:59;0.65;;;0.30;;
33579;SDS011;19909;43.644;-79.438;2023-02-15T07:16:25;0.52;;;0.25;;
33579;SDS011;19909;43.644;-79.438;2023-02-15T07:18:52;0.65;;;0.30;;
33579;SDS011;19909;43.644;-79.438;2023-02-15T07:21:18;0.50;;;0.40;;
33579;SDS011;19909;43.644;-79.438;2023-02-15T07:23:44;0.85;;;0.22;;
33579;SDS011;19909;43.644;-79.438;2023-02-15T07:26:10;0.40;;;0.28;;
33579;SDS011;19909;43.644;-79.438;2023-02-15T07:28:37;0.50;;;0.22;;
33579;SDS011;19909;43.644;-79.438;2023-02-15T07:31:04;0.70;;;0.30;;
33579;SDS011;19909;43.644;-79.438;2023-02-15T07:33:31;0.43;;;0.28;;
33579;SDS011;19909;43.644;-79.438;2023-02-15T07:35:59;0.38;;;0.20;;
33579;SDS011;19909;43.644;-79.438;2023-02-15T07:38:29;0.95;;;0.30;;
33579;SDS011;19909;43.644;-79.438;2023-02-15T07:41:01;0.60;;;0.40;;
33579;SDS011;19909;43.644;-79.438;2023-02-15T07:43:29;0.60;;;0.30;;
33579;SDS011;19909;43.644;-79.438;2023-02-15T07:46:02;0.28;;;0.28;;
33579;SDS011;19909;43.644;-79.438;2023-02-15T07:48:31;0.60;;;0.30;;
33579;SDS011;19909;43.644;-79.438;2023-02-15T07:51:00;0.82;;;0.40;;
33579;SDS011;19909;43.644;-79.438;2023-02-15T07:53:29;0.50;;;0.40;;
33579;SDS011;19909;43.644;-79.438;2023-02-15T07:56:03;0.13;;;0.13;;
33579;SDS011;19909;43.644;-79.438;2023-02-15T07:58:31;0.73;;;0.20;;
33579;SDS011;19909;43.644;-79.438;2023-02-15T08:01:27;0.85;;;0.40;;
33579;SDS011;19909;43.644;-79.438;2023-02-15T08:03:56;0.95;;;0.38;;
33579;SDS011;19909;43.644;-79.438;2023-02-15T08:06:24;0.50;;;0.40;;
33579;SDS011;19909;43.644;-79.438;2023-02-15T08:08:51;0.35;;;0.30;;
33579;SDS011;19909;43.644;-79.438;2023-02-15T08:11:19;0.40;;;0.20;;
33579;SDS011;19909;43.644;-79.438;2023-02-15T08:21:47;1.52;;;0.13;;
33579;SDS011;19909;43.644;-79.438;2023-02-15T08:24:16;0.40;;;0.28;;
33579;SDS011;19909;43.644;-79.438;2023-02-15T08:26:44;0.75;;;0.38;;
33579;SDS011;19909;43.644;-79.438;2023-02-15T08:29:12;0.63;;;0.22;;
33579;SDS011;19909;43.644;-79.438;2023-02-15T08:31:39;0.85;;;0.30;;
33579;SDS011;19909;43.644;-79.438;2023-02-15T08:34:06;0.52;;;0.40;;
33579;SDS011;19909;43.644;-79.438;2023-02-15T08:36:35;0.77;;;0.30;;
33579;SDS011;19909;43.644;-79.438;2023-02-15T08:39:03;0.38;;;0.20;;
33579;SDS011;19909;43.644;-79.438;2023-02-15T08:41:31;0.65;;;0.30;;
33579;SDS011;19909;43.644;-79.438;2023-02-15T08:44:00;1.60;;;0.20;;
33579;SDS011;19909;43.644;-79.438;2023-02-15T08:46:29;0.40;;;0.30;;
33579;SDS011;19909;43.644;-79.438;2023-02-15T08:48:57;0.55;;;0.30;;
33579;SDS011;19909;43.644;-79.438;2023-02-15T08:51:25;0.30;;;0.20;;
33579;SDS011;19909;43.644;-79.438;2023-02-15T08:53:56;0.40;;;0.20;;
33579;SDS011;19909;43.644;-79.438;2023-02-15T08:56:24;0.35;;;0.20;;
33579;SDS011;19909;43.644;-79.438;2023-02-15T08:58:57;0.98;;;0.35;;
33579;SDS011;19909;43.644;-79.438;2023-02-15T09:01:24;1.15;;;0.35;;
33579;SDS011;19909;43.644;-79.438;2023-02-15T09:04:03;0.55;;;0.25;;
33579;SDS011;19909;43.644;-79.438;2023-02-15T09:06:33;0.60;;;0.30;;
33579;SDS011;19909;43.644;-79.438;2023-02-15T09:09:02;1.02;;;0.68;;
33579;SDS011;19909;43.644;-79.438;2023-02-15T09:11:30;0.43;;;0.20;;
33579;SDS011;19909;43.644;-79.438;2023-02-15T09:14:02;0.22;;;0.20;;
33579;SDS011;19909;43.644;-79.438;2023-02-15T09:16:32;0.80;;;0.40;;
33579;SDS011;19909;43.644;-79.438;2023-02-15T09:18:59;0.80;;;0.35;;
33579;SDS011;19909;43.644;-79.438;2023-02-15T09:21:27;0.45;;;0.20;;
33579;SDS011;19909;43.644;-79.438;2023-02-15T09:24:01;0.40;;;0.30;;
33579;SDS011;19909;43.644;-79.438;2023-02-15T09:26:30;0.50;;;0.20;;
33579;SDS011;19909;43.644;-79.438;2023-02-15T09:28:59;0.98;;;0.30;;
33579;SDS011;19909;43.644;-79.438;2023-02-15T09:31:27;0.40;;;0.20;;
33579;SDS011;19909;43.644;-79.438;2023-02-15T09:33:55;0.28;;;0.25;;
33579;SDS011;19909;43.644;-79.438;2023-02-15T09:38:55;0.25;;;0.25;;
33579;SDS011;19909;43.644;-79.438;2023-02-15T09:57:34;0.28;;;0.20;;
33579;SDS011;19909;43.644;-79.438;2023-02-15T10:00:31;0.43;;;0.30;;
33579;SDS011;19909;43.644;-79.438;2023-02-15T10:16:49;0.55;;;0.30;;
33579;SDS011;19909;43.644;-79.438;2023-02-15T10:22:31;0.52;;;0.30;;
33579;SDS011;19909;43.644;-79.438;2023-02-15T10:27:49;0.30;;;0.20;;
33579;SDS011;19909;43.644;-79.438;2023-02-15T10:30:25;0.55;;;0.22;;
33579;SDS011;19909;43.644;-79.438;2023-02-15T10:49:22;0.32;;;0.20;;
33579;SDS011;19909;43.644;-79.438;2023-02-15T11:00:30;0.28;;;0.25;;
33579;SDS011;19909;43.644;-79.438;2023-02-15T11:06:11;0.43;;;0.20;;
33579;SDS011;19909;43.644;-79.438;2023-02-15T11:08:49;0.40;;;0.10;;
33579;SDS011;19909;43.644;-79.438;2023-02-15T11:11:23;0.30;;;0.17;;
33579;SDS011;19909;43.644;-79.438;2023-02-15T11:13:52;0.40;;;0.20;;
33579;SDS011;19909;43.644;-79.438;2023-02-15T11:21:32;0.25;;;0.20;;
33579;SDS011;19909;43.644;-79.438;2023-02-15T11:24:14;0.70;;;0.20;;
33579;SDS011;19909;43.644;-79.438;2023-02-15T11:26:54;0.63;;;0.20;;
33579;SDS011;19909;43.644;-79.438;2023-02-15T11:32:20;0.35;;;0.20;;
33579;SDS011;19909;43.644;-79.438;2023-02-15T11:34:58;0.45;;;0.30;;
33579;SDS011;19909;43.644;-79.438;2023-02-15T11:40:38;0.30;;;0.20;;
33579;SDS011;19909;43.644;-79.438;2023-02-15T11:45:47;0.60;;;0.20;;
33579;SDS011;19909;43.644;-79.438;2023-02-15T11:48:14;0.50;;;0.17;;
33579;SDS011;19909;43.644;-79.438;2023-02-15T11:50:41;0.30;;;0.30;;
33579;SDS011;19909;43.644;-79.438;2023-02-15T11:53:16;0.20;;;0.10;;
33579;SDS011;19909;43.644;-79.438;2023-02-15T11:55:47;0.43;;;0.20;;
33579;SDS011;19909;43.644;-79.438;2023-02-15T12:03:47;0.43;;;0.15;;
33579;SDS011;19909;43.644;-79.438;2023-02-15T12:06:19;0.50;;;0.20;;
33579;SDS011;19909;43.644;-79.438;2023-02-15T12:09:02;0.50;;;0.25;;
33579;SDS011;19909;43.644;-79.438;2023-02-15T12:11:37;0.63;;;0.20;;
33579;SDS011;19909;43.644;-79.438;2023-02-15T12:14:05;0.38;;;0.20;;
33579;SDS011;19909;43.644;-79.438;2023-02-15T12:16:49;0.40;;;0.10;;
33579;SDS011;19909;43.644;-79.438;2023-02-15T12:19:30;0.43;;;0.30;;
33579;SDS011;19909;43.644;-79.438;2023-02-15T12:22:17;0.40;;;0.30;;
33579;SDS011;19909;43.644;-79.438;2023-02-15T12:24:49;0.10;;;0.10;;
33579;SDS011;19909;43.644;-79.438;2023-02-15T12:27:27;0.65;;;0.30;;
33579;SDS011;19909;43.644;-79.438;2023-02-15T12:29:56;0.40;;;0.20;;
33579;SDS011;19909;43.644;-79.438;2023-02-15T12:32:36;0.40;;;0.20;;
33579;SDS011;19909;43.644;-79.438;2023-02-15T12:35:31;0.55;;;0.25;;
33579;SDS011;19909;43.644;-79.438;2023-02-15T12:38:05;0.43;;;0.20;;
33579;SDS011;19909;43.644;-79.438;2023-02-15T12:40:37;0.40;;;0.20;;
33579;SDS011;19909;43.644;-79.438;2023-02-15T12:43:08;0.52;;;0.30;;
33579;SDS011;19909;43.644;-79.438;2023-02-15T12:46:12;0.73;;;0.30;;
33579;SDS011;19909;43.644;-79.438;2023-02-15T12:49:07;0.28;;;0.15;;
33579;SDS011;19909;43.644;-79.438;2023-02-15T12:51:45;0.35;;;0.30;;
33579;SDS011;19909;43.644;-79.438;2023-02-15T12:54:31;0.50;;;0.40;;
33579;SDS011;19909;43.644;-79.438;2023-02-15T12:57:15;0.20;;;0.10;;
33579;SDS011;19909;43.644;-79.438;2023-02-15T13:00:02;0.57;;;0.20;;
33579;SDS011;19909;43.644;-79.438;2023-02-15T13:02:54;0.40;;;0.20;;
33579;SDS011;19909;43.644;-79.438;2023-02-15T13:05:26;0.20;;;0.20;;
33579;SDS011;19909;43.644;-79.438;2023-02-15T13:08:12;0.35;;;0.20;;
33579;SDS011;19909;43.644;-79.438;2023-02-15T13:10:52;0.43;;;0.20;;
33579;SDS011;19909;43.644;-79.438;2023-02-15T13:13:20;0.15;;;0.10;;
33579;SDS011;19909;43.644;-79.438;2023-02-15T13:16:09;0.15;;;0.15;;
33579;SDS011;19909;43.644;-79.438;2023-02-15T13:18:45;1.17;;;0.30;;
33579;SDS011;19909;43.644;-79.438;2023-02-15T13:21:16;0.35;;;0.22;;
33579;SDS011;19909;43.644;-79.438;2023-02-15T13:23:47;0.20;;;0.20;;
33579;SDS011;19909;43.644;-79.438;2023-02-15T13:26:20;0.38;;;0.20;;
33579;SDS011;19909;43.644;-79.438;2023-02-15T13:28:49;0.52;;;0.30;;
33579;SDS011;19909;43.644;-79.438;2023-02-15T13:31:22;0.83;;;0.20;;
33579;SDS011;19909;43.644;-79.438;2023-02-15T13:33:55;0.22;;;0.20;;
33579;SDS011;19909;43.644;-79.438;2023-02-15T13:36:45;0.63;;;0.35;;
33579;SDS011;19909;43.644;-79.438;2023-02-15T13:39:48;0.50;;;0.30;;
33579;SDS011;19909;43.644;-79.438;2023-02-15T13:45:13;0.30;;;0.20;;
33579;SDS011;19909;43.644;-79.438;2023-02-15T13:56:20;0.30;;;0.20;;
33579;SDS011;19909;43.644;-79.438;2023-02-15T14:10:02;0.57;;;0.38;;
33579;SDS011;19909;43.644;-79.438;2023-02-15T14:13:01;0.63;;;0.28;;
33579;SDS011;19909;43.644;-79.438;2023-02-15T14:15:43;0.80;;;0.30;;
33579;SDS011;19909;43.644;-79.438;2023-02-15T14:34:57;0.32;;;0.22;;
33579;SDS011;19909;43.644;-79.438;2023-02-15T14:37:38;0.55;;;0.55;;
33579;SDS011;19909;43.644;-79.438;2023-02-15T14:48:46;0.50;;;0.20;;
33579;SDS011;19909;43.644;-79.438;2023-02-15T14:56:43;0.43;;;0.30;;
33579;SDS011;19909;43.644;-79.438;2023-02-15T14:59:19;0.20;;;0.20;;
33579;SDS011;19909;43.644;-79.438;2023-02-15T15:01:56;0.55;;;0.32;;
33579;SDS011;19909;43.644;-79.438;2023-02-15T15:09:38;2.20;;;0.60;;
33579;SDS011;19909;43.644;-79.438;2023-02-15T15:14:47;0.60;;;0.30;;
33579;SDS011;19909;43.644;-79.438;2023-02-15T15:22:49;0.52;;;0.30;;
33579;SDS011;19909;43.644;-79.438;2023-02-15T15:39:44;0.47;;;0.30;;
33579;SDS011;19909;43.644;-79.438;2023-02-15T15:49:58;0.57;;;0.30;;
33579;SDS011;19909;43.644;-79.438;2023-02-15T15:52:25;0.47;;;0.10;;
33579;SDS011;19909;43.644;-79.438;2023-02-15T15:54:57;0.50;;;0.40;;
33579;SDS011;19909;43.644;-79.438;2023-02-15T15:57:39;0.40;;;0.40;;
33579;SDS011;19909;43.644;-79.438;2023-02-15T16:00:22;0.52;;;0.30;;
33579;SDS011;19909;43.644;-79.438;2023-02-15T16:03:23;0.60;;;0.40;;
33579;SDS011;19909;43.644;-79.438;2023-02-15T16:05:51;0.73;;;0.38;;
33579;SDS011;19909;43.644;-79.438;2023-02-15T16:08:33;0.70;;;0.30;;
33579;SDS011;19909;43.644;-79.438;2023-02-15T16:11:08;0.40;;;0.30;;
33579;SDS011;19909;43.644;-79.438;2023-02-15T16:13:44;0.60;;;0.47;;
33579;SDS011;19909;43.644;-79.438;2023-02-15T16:16:12;0.55;;;0.30;;
33579;SDS011;19909;43.644;-79.438;2023-02-15T16:18:45;0.50;;;0.30;;
33579;SDS011;19909;43.644;-79.438;2023-02-15T16:21:19;0.60;;;0.32;;
33579;SDS011;19909;43.644;-79.438;2023-02-15T16:23:57;0.40;;;0.30;;
33579;SDS011;19909;43.644;-79.438;2023-02-15T16:29:32;0.15;;;0.15;;
33579;SDS011;19909;43.644;-79.438;2023-02-15T16:34:31;1.10;;;0.60;;
33579;SDS011;19909;43.644;-79.438;2023-02-15T16:37:16;0.98;;;0.30;;
33579;SDS011;19909;43.644;-79.438;2023-02-15T16:39:45;0.77;;;0.40;;
33579;SDS011;19909;43.644;-79.438;2023-02-15T16:42:13;1.17;;;0.32;;
33579;SDS011;19909;43.644;-79.438;2023-02-15T16:44:41;0.50;;;0.30;;
33579;SDS011;19909;43.644;-79.438;2023-02-15T16:47:18;0.50;;;0.40;;
33579;SDS011;19909;43.644;-79.438;2023-02-15T16:49:49;1.02;;;0.50;;
33579;SDS011;19909;43.644;-79.438;2023-02-15T16:52:20;1.73;;;0.30;;
33579;SDS011;19909;43.644;-79.438;2023-02-15T16:55:00;0.60;;;0.30;;
33579;SDS011;19909;43.644;-79.438;2023-02-15T16:57:31;0.45;;;0.30;;
33579;SDS011;19909;43.644;-79.438;2023-02-15T17:00:01;0.60;;;0.30;;
33579;SDS011;19909;43.644;-79.438;2023-02-15T17:02:33;1.05;;;0.40;;
33579;SDS011;19909;43.644;-79.438;2023-02-15T17:05:21;0.70;;;0.40;;
33579;SDS011;19909;43.644;-79.438;2023-02-15T17:08:10;0.68;;;0.40;;
33579;SDS011;19909;43.644;-79.438;2023-02-15T17:11:00;0.70;;;0.40;;
33579;SDS011;19909;43.644;-79.438;2023-02-15T17:13:30;1.55;;;0.38;;
33579;SDS011;19909;43.644;-79.438;2023-02-15T17:18:26;0.32;;;0.30;;
33579;SDS011;19909;43.644;-79.438;2023-02-15T17:20:56;0.40;;;0.30;;
33579;SDS011;19909;43.644;-79.438;2023-02-15T17:23:34;0.70;;;0.30;;
33579;SDS011;19909;43.644;-79.438;2023-02-15T17:28:54;0.95;;;0.35;;
33579;SDS011;19909;43.644;-79.438;2023-02-15T17:31:27;1.00;;;0.65;;
33579;SDS011;19909;43.644;-79.438;2023-02-15T17:33:57;0.73;;;0.40;;
33579;SDS011;19909;43.644;-79.438;2023-02-15T17:36:26;1.00;;;0.47;;
33579;SDS011;19909;43.644;-79.438;2023-02-15T17:43:55;1.23;;;0.38;;
33579;SDS011;19909;43.644;-79.438;2023-02-15T17:46:22;0.95;;;0.40;;
33579;SDS011;19909;43.644;-79.438;2023-02-15T17:48:50;1.20;;;0.38;;
33579;SDS011;19909;43.644;-79.438;2023-02-15T17:51:19;0.50;;;0.43;;
33579;SDS011;19909;43.644;-79.438;2023-02-15T17:53:46;2.47;;;0.38;;
33579;SDS011;19909;43.644;-79.438;2023-02-15T17:56:31;0.50;;;0.30;;
33579;SDS011;19909;43.644;-79.438;2023-02-15T17:58:58;0.70;;;0.40;;
33579;SDS011;19909;43.644;-79.438;2023-02-15T18:01:24;0.73;;;0.40;;
33579;SDS011;19909;43.644;-79.438;2023-02-15T18:04:13;0.82;;;0.50;;
33579;SDS011;19909;43.644;-79.438;2023-02-15T18:06:58;0.30;;;0.20;;
33579;SDS011;19909;43.644;-79.438;2023-02-15T18:09:43;0.60;;;0.35;;
33579;SDS011;19909;43.644;-79.438;2023-02-15T18:12:28;0.70;;;0.30;;
33579;SDS011;19909;43.644;-79.438;2023-02-15T18:14:57;0.55;;;0.22;;
33579;SDS011;19909;43.644;-79.438;2023-02-15T18:17:29;0.35;;;0.28;;
33579;SDS011;19909;43.644;-79.438;2023-02-15T18:20:05;0.20;;;0.20;;
33579;SDS011;19909;43.644;-79.438;2023-02-15T18:22:43;1.00;;;0.30;;
33579;SDS011;19909;43.644;-79.438;2023-02-15T18:25:13;0.52;;;0.30;;
33579;SDS011;19909;43.644;-79.438;2023-02-15T18:27:41;0.50;;;0.32;;
33579;SDS011;19909;43.644;-79.438;2023-02-15T18:30:12;0.30;;;0.20;;
33579;SDS011;19909;43.644;-79.438;2023-02-15T18:32:41;0.68;;;0.30;;
33579;SDS011;19909;43.644;-79.438;2023-02-15T18:35:20;0.20;;;0.20;;
33579;SDS011;19909;43.644;-79.438;2023-02-15T18:37:48;0.82;;;0.20;;
33579;SDS011;19909;43.644;-79.438;2023-02-15T18:40:17;0.40;;;0.13;;
33579;SDS011;19909;43.644;-79.438;2023-02-15T18:42:48;0.47;;;0.30;;
33579;SDS011;19909;43.644;-79.438;2023-02-15T18:45:19;0.15;;;0.15;;
33579;SDS011;19909;43.644;-79.438;2023-02-15T18:47:52;0.38;;;0.20;;